Terminal Aerodrome Forecast
Issued by NWS

Home | Current Version | Previous Version | Text Only | Print | Product List | Glossary On
Versions: 1 2 3 4 5 6 7 8 9 10 11 12 13 14 15 16 17 18 19 20 21 22 23 24 25 26 27 28 29 30 31
000
FTUS43 KGLD 230401 AAA
TAFMCK
TAF AMD
KMCK 230401Z 2304/2324 10010KT P6SM VCTS BKN035CB
      TEMPO 2304/2306 VRB25G50KT 3SM TSRA BKN025CB
     FM230700 03006KT P6SM VCTS SCT040CB OVC100
     FM230900 VRB04KT 3SM BR SCT015
     FM231400 21012KT P6SM SCT120=

USA.gov is the U.S. government's official web portal to all federal, state and local government web resources and services.